This is the latest recevied weather packets stored in our database for station/object MB7UKB-10. If no packets are shown the sender has not sent any weather packets the latest 10 day(s).
| Time | Temp. | Humidity | Pressure | Rain* | Wind** | Luminosity | Snow |
|---|---|---|---|---|---|---|---|
| 1788472834 | 20° C | 82% | 1015.3 hPa | 0 mm | - | - | - |
| 1788471033 | 20.56° C | 82% | 1016 hPa | 0 mm | - | - | - |
| 1788469233 | 21.11° C | 79% | 1015.8 hPa | 0 mm | - | - | - |
| 1788467433 | 21.11° C | 77% | 1015.9 hPa | 0 mm | - | - | - |
| 1788465634 | 21.67° C | 76% | 1015.8 hPa | 0 mm | - | - | - |
| 1788463833 | 22.22° C | 74% | 1015.8 hPa | 0 mm | - | - | - |
| 1788462033 | 22.78° C | 67% | 1015.9 hPa | 0 mm | - | - | - |
| 1788460233 | 23.33° C | 62% | 1015.7 hPa | 0 mm | - | - | - |
| 1788458433 | 23.89° C | 59% | 1015.9 hPa | 0 mm | - | - | - |
| 1788456634 | 24.44° C | 55% | 1016 hPa | 0 mm | - | - | - |
| 1788454834 | 25.56° C | 51% | 1015.6 hPa | 0 mm | - | - | - |
| 1788453034 | 25° C | 62% | 1015.5 hPa | 0 mm | - | - | - |
| 1788451234 | 25.56° C | 59% | 1015.7 hPa | 0 mm | - | - | - |
| 1788449434 | 25° C | 59% | 1016.1 hPa | 0 mm | - | - | - |
| 1788447634 | 26.11° C | 54% | 1016.3 hPa | 0 mm | - | - | - |
| 1788445834 | 26.11° C | 55% | 1016.2 hPa | 0 mm | - | - | - |
| 1788444034 | 25.56° C | 56% | 1016.6 hPa | 0 mm | - | - | - |
| 1788442234 | 25° C | 58% | 1017 hPa | 0 mm | - | - | - |
| 1788440433 | 25° C | 58% | 1017 hPa | 0 mm | - | - | - |
| 1788438633 | 23.89° C | 63% | 1017.1 hPa | 0 mm | - | - | - |
| 1788436834 | 23.89° C | 62% | 1017.6 hPa | 0 mm | - | - | - |
| 1788435033 | 24.44° C | 61% | 1017.3 hPa | 0 mm | - | - | - |
| 1788433254 | 23.33° C | 66% | 1017.5 hPa | 0 mm | - | - | - |
| 1788431433 | 22.78° C | 67% | 1017.6 hPa | 0 mm | - | - | - |
| 1788429633 | 21.67° C | 70% | 1017.9 hPa | 0 mm | - | - | - |
* Rain latest hour (hover to see other rain measurements)
** Current wind speed in m/s (hover to see current wind gust speed)